ソチ の空港の天気 - METARとTAF

ソチ空港 ( URSS / AER ) - ロシア ソチ
飛行場実況気象(Metar)
観測時間08/04 23:00 MSK (08/04 20:00 UTC)
風向・風速東北東 2m/s
視程10km以上
天気現象
全天の4割程度の雲 雲底高度 460m
気温26℃
湿度89%
気圧1013hPa
METARURSS 042000Z 07002MPS 9999 SCT015 26/24 Q1013 R02/010070 R06/010070 NOSIG RMK R06/10002MPS MT OBSC QFE758
過去の天気等 Google飛行場航空写真 Wunderground天気予報

過去48時間のMETAR

飛行場予報(TAF)
発表時間: 8/04 19:55 MSK (8/04 16:55 UTC)
予報対象時間: 4日21時 MSK ~ 5日21時 MSK
風向・風速北東 3m/s 瞬間風速 8m/s
視程10km以上
全天の8割程度の雲 雲底高度 490m
4日21時 MSK ~ 5日6時 MSK に一時的に
風向・風速不定 1m/s
全天の8割程度の雲 雲底高度 340m
5日8時 MSK ~ 5日9時 MSK に徐々に
風向・風速南 3m/s 瞬間風速 8m/s
全天の4割程度の雲 雲底高度 910m
5日11時 MSK ~ 5日12時 MSK に徐々に
風向・風速南西 3m/s 瞬間風速 8m/s
5日13時 MSK ~ 5日15時 MSK に徐々に
風向・風速西 4m/s 瞬間風速 9m/s
少しの積乱雲 雲底高度 1220m
5日20時 MSK ~ 5日21時 MSK に徐々に
風向・風速北東 3m/s 瞬間風速 8m/s
全天の8割程度の雲 雲底高度 490m
TAF URSS 041655Z 0418/0518 05003G08MPS 9999 BKN016
TEMPO 0418/0503 VRB01MPS BKN011
BECMG 0505/0506 18003G08MPS SCT030
BECMG 0508/0509 23003G08MPS
BECMG 0510/0512 28004G09MPS FEW040CB
BECMG 0517/0518 05003G08MPS BKN016